Time;durP1;ratioP1;P1;durP2;ratioP2;P2;SDS_P1;SDS_P2;PMS_P1;PMS_P2;Temp;Humidity;BMP_temperature;BMP_pressure;BME280_temperature;BME280_humidity;BME280_pressure;Samples;Min_cycle;Max_cycle;Signal;HPM_P1;HPM_P2
2021/08/20 00:00:12;;;;;;;;;;;18.80;71.30;;;;;;494528;240;1072;-46
2021/08/20 00:02:14;;;;;;;;;;;18.80;71.40;;;;;;494255;240;2190;-46
2021/08/20 00:04:15;;;;;;;;;;;18.90;71.40;;;;;;494099;240;1023;-46
2021/08/20 00:06:16;;;;;;;;;;;18.80;71.40;;;;;;494149;240;1118;-46
2021/08/20 00:08:18;;;;;;;;;;;18.80;71.40;;;;;;494023;240;1070;-46
2021/08/20 00:10:19;;;;;;;;;;;18.80;71.40;;;;;;494515;240;1023;-46
2021/08/20 00:12:20;;;;;;;;;;;18.80;71.40;;;;;;494001;240;1219;-46
2021/08/20 00:14:22;;;;;;;;;;;18.80;71.40;;;;;;494079;240;1162;-46
2021/08/20 00:16:23;;;;;;;;;;;18.80;71.60;;;;;;494121;240;1519;-46
2021/08/20 00:18:24;;;;;;;;;;;18.80;71.60;;;;;;494475;240;1052;-46
2021/08/20 00:20:26;;;;;;;;;;;18.80;71.50;;;;;;494049;240;1078;-46
2021/08/20 00:22:27;;;;;;;;;;;18.80;71.60;;;;;;494246;240;2183;-46
2021/08/20 00:24:29;;;;;;;;;;;18.80;71.60;;;;;;494068;240;1081;-46
2021/08/20 00:26:30;;;;;;;;;;;18.80;71.50;;;;;;494007;240;1376;-46
2021/08/20 00:28:31;;;;;;;;;;;18.80;71.50;;;;;;494097;240;1260;-46
2021/08/20 00:30:33;;;;;;;;;;;18.80;71.50;;;;;;494518;240;1046;-46
2021/08/20 00:32:34;;;;;;;;;;;18.80;71.50;;;;;;493996;240;1160;-46
2021/08/20 00:34:35;;;;;;;;;;;18.80;71.40;;;;;;494363;240;1055;-46
2021/08/20 00:36:36;;;;;;;;;;;18.80;71.50;;;;;;494202;240;1411;-46
2021/08/20 00:38:38;;;;;;;;;;;18.80;71.50;;;;;;494024;240;1285;-46
2021/08/20 00:40:39;;;;;;;;;;;18.80;71.40;;;;;;494503;240;1249;-46
2021/08/20 00:42:41;;;;;;;;;;;18.80;71.60;;;;;;494341;240;2193;-46
2021/08/20 00:44:42;;;;;;;;;;;18.80;71.50;;;;;;494141;240;1323;-46
2021/08/20 00:46:43;;;;;;;;;;;18.80;71.60;;;;;;494080;240;1134;-46
2021/08/20 00:48:45;;;;;;;;;;;18.80;71.50;;;;;;494487;240;1277;-46
2021/08/20 00:50:46;;;;;;;;;;;18.80;71.60;;;;;;494155;240;1429;-46
2021/08/20 00:52:47;;;;;;;;;;;18.80;71.60;;;;;;494203;240;1182;-46
2021/08/20 00:54:49;;;;;;;;;;;18.80;71.70;;;;;;494448;240;1062;-46
2021/08/20 00:56:50;;;;;;;;;;;18.80;71.70;;;;;;494165;240;1149;-46
2021/08/20 00:58:52;;;;;;;;;;;18.80;71.50;;;;;;493995;241;2165;-46
2021/08/20 01:00:53;;;;;;;;;;;18.80;71.50;;;;;;494517;240;2139;-46
2021/08/20 01:02:54;;;;;;;;;;;18.80;71.60;;;;;;494004;240;1148;-46
2021/08/20 01:04:56;;;;;;;;;;;18.80;71.50;;;;;;494406;240;1104;-46
2021/08/20 01:06:58;;;;;;;;;;;18.80;71.40;;;;;;494030;240;1296;-46
2021/08/20 01:08:58;;;;;;;;;;;18.80;71.40;;;;;;494068;240;1854;-45
2021/08/20 01:11:00;;;;;;;;;;;18.80;71.50;;;;;;494501;240;1319;-46
2021/08/20 01:13:01;;;;;;;;;;;18.80;71.60;;;;;;494249;240;1107;-46
2021/08/20 01:15:02;;;;;;;;;;;18.80;71.50;;;;;;494190;240;1186;-46
2021/08/20 01:17:05;;;;;;;;;;;18.80;71.50;;;;;;494466;240;1138;-46
2021/08/20 01:19:07;;;;;;;;;;;18.80;71.60;;;;;;494094;240;1025;-46
2021/08/20 01:21:08;;;;;;;;;;;18.80;71.50;;;;;;494452;240;2190;-46
2021/08/20 01:23:09;;;;;;;;;;;18.80;71.60;;;;;;494521;240;1110;-46
2021/08/20 01:25:11;;;;;;;;;;;18.80;71.70;;;;;;494538;240;1038;-46
2021/08/20 01:27:12;;;;;;;;;;;18.70;71.60;;;;;;494068;240;1295;-46
2021/08/20 01:29:16;;;;;;;;;;;18.80;71.50;;;;;;494211;240;1211;-46
2021/08/20 01:31:15;;;;;;;;;;;18.80;71.60;;;;;;494262;241;1530;-46
2021/08/20 01:33:16;;;;;;;;;;;18.80;71.60;;;;;;494050;240;1070;-46
2021/08/20 01:35:17;;;;;;;;;;;18.80;71.60;;;;;;494426;240;1066;-46
2021/08/20 01:37:18;;;;;;;;;;;18.80;71.60;;;;;;494105;240;1160;-45
2021/08/20 01:39:20;;;;;;;;;;;18.80;71.70;;;;;;494055;240;1155;-46
2021/08/20 01:41:21;;;;;;;;;;;18.80;71.70;;;;;;494180;240;2128;-46
2021/08/20 01:43:23;;;;;;;;;;;18.80;71.70;;;;;;494078;240;1043;-46
2021/08/20 01:45:24;;;;;;;;;;;18.80;71.60;;;;;;494190;240;1129;-46
2021/08/20 01:47:25;;;;;;;;;;;18.80;71.60;;;;;;494334;240;1153;-46
2021/08/20 01:49:26;;;;;;;;;;;18.80;71.60;;;;;;494113;240;1090;-46
2021/08/20 01:51:28;;;;;;;;;;;18.80;71.70;;;;;;494388;240;1349;-46
2021/08/20 01:53:29;;;;;;;;;;;18.80;71.70;;;;;;494222;240;1039;-46
2021/08/20 01:55:32;;;;;;;;;;;18.80;71.70;;;;;;494084;240;1077;-46
2021/08/20 01:57:34;;;;;;;;;;;18.80;71.60;;;;;;493924;240;1157;-45
2021/08/20 01:59:35;;;;;;;;;;;18.80;71.50;;;;;;494409;240;1232;-46
2021/08/20 02:01:36;;;;;;;;;;;18.80;71.60;;;;;;494015;240;2171;-46
2021/08/20 02:03:37;;;;;;;;;;;18.80;71.60;;;;;;494101;240;1046;-46
2021/08/20 02:05:39;;;;;;;;;;;18.80;71.70;;;;;;494548;240;1046;-46
2021/08/20 02:07:40;;;;;;;;;;;18.80;71.70;;;;;;494102;240;1274;-46
2021/08/20 02:09:41;;;;;;;;;;;18.70;71.70;;;;;;494474;240;2516;-46
2021/08/20 02:11:42;;;;;;;;;;;18.90;71.20;;;;;;494145;240;1110;-45
2021/08/20 02:13:44;;;;;;;;;;;19.20;70.10;;;;;;494519;240;1100;-46
2021/08/20 02:15:45;;;;;;;;;;;19.50;69.10;;;;;;494170;240;1169;-46
2021/08/20 02:17:46;;;;;;;;;;;19.70;68.20;;;;;;494223;240;1392;-46
2021/08/20 02:19:48;;;;;;;;;;;19.80;67.60;;;;;;494109;240;1033;-46
2021/08/20 02:21:49;;;;;;;;;;;19.90;67.30;;;;;;493972;240;2206;-46
2021/08/20 02:23:50;;;;;;;;;;;20.00;66.90;;;;;;494093;240;1030;-46
2021/08/20 02:25:52;;;;;;;;;;;20.10;66.60;;;;;;494039;240;1056;-46
2021/08/20 02:27:53;;;;;;;;;;;20.20;66.40;;;;;;494149;240;1251;-46
2021/08/20 02:29:54;;;;;;;;;;;20.20;66.20;;;;;;494114;240;1145;-46
2021/08/20 02:31:56;;;;;;;;;;;20.30;66.00;;;;;;494366;240;1310;-46
2021/08/20 02:33:57;;;;;;;;;;;20.40;65.80;;;;;;494117;240;1068;-46
2021/08/20 02:35:58;;;;;;;;;;;20.40;65.60;;;;;;494167;240;1208;-47
2021/08/20 02:38:00;;;;;;;;;;;20.40;65.40;;;;;;494011;240;1152;-46
2021/08/20 02:40:01;;;;;;;;;;;20.50;65.30;;;;;;494080;240;1111;-46
2021/08/20 02:42:02;;;;;;;;;;;20.60;65.20;;;;;;494444;240;2124;-46
2021/08/20 02:44:04;;;;;;;;;;;20.60;65.00;;;;;;494519;240;1077;-46
2021/08/20 02:46:05;;;;;;;;;;;20.60;64.90;;;;;;494143;240;1353;-46
2021/08/20 02:48:06;;;;;;;;;;;20.70;64.80;;;;;;493990;240;1202;-46
2021/08/20 02:50:07;;;;;;;;;;;20.70;64.70;;;;;;494074;240;923;-46
2021/08/20 02:52:09;;;;;;;;;;;20.70;64.70;;;;;;494285;240;1170;-46
2021/08/20 02:54:10;;;;;;;;;;;20.80;64.60;;;;;;494091;240;1079;-47
2021/08/20 02:56:11;;;;;;;;;;;20.80;64.50;;;;;;494194;240;1222;-46
2021/08/20 02:58:13;;;;;;;;;;;20.80;64.50;;;;;;494127;240;1137;-46
2021/08/20 03:00:14;;;;;;;;;;;20.80;64.30;;;;;;494113;240;1210;-46
2021/08/20 03:02:15;;;;;;;;;;;20.90;64.20;;;;;;494004;240;2182;-46
2021/08/20 03:04:17;;;;;;;;;;;20.90;64.20;;;;;;494083;240;1076;-46
2021/08/20 03:06:18;;;;;;;;;;;20.90;64.20;;;;;;494236;240;1293;-46
2021/08/20 03:08:20;;;;;;;;;;;20.90;64.00;;;;;;494044;240;1092;-46
2021/08/20 03:10:21;;;;;;;;;;;21.00;64.00;;;;;;494083;240;1059;-46
2021/08/20 03:12:24;;;;;;;;;;;21.00;63.90;;;;;;494042;240;1314;-46
2021/08/20 03:14:24;;;;;;;;;;;21.00;63.90;;;;;;493901;241;1904;-46
2021/08/20 03:16:25;;;;;;;;;;;21.00;63.80;;;;;;494144;240;1181;-47
2021/08/20 03:18:26;;;;;;;;;;;21.10;63.80;;;;;;494354;240;1089;-46
2021/08/20 03:20:28;;;;;;;;;;;21.10;63.80;;;;;;494492;240;1109;-46
2021/08/20 03:22:29;;;;;;;;;;;21.10;63.70;;;;;;494418;240;2120;-46
2021/08/20 03:24:30;;;;;;;;;;;21.10;63.60;;;;;;494322;240;1101;-46
2021/08/20 03:26:32;;;;;;;;;;;21.10;63.60;;;;;;494348;240;1176;-46
2021/08/20 03:28:33;;;;;;;;;;;21.10;63.50;;;;;;494512;240;1179;-46
2021/08/20 03:30:34;;;;;;;;;;;21.20;63.50;;;;;;494430;240;1133;-46
2021/08/20 03:32:36;;;;;;;;;;;21.20;63.50;;;;;;494071;240;1267;-46
2021/08/20 03:34:37;;;;;;;;;;;21.20;63.40;;;;;;494534;240;1069;-47
2021/08/20 03:36:39;;;;;;;;;;;21.20;63.40;;;;;;493967;240;1227;-47
2021/08/20 03:38:40;;;;;;;;;;;21.20;63.40;;;;;;494396;240;1237;-46
2021/08/20 03:40:41;;;;;;;;;;;21.30;63.30;;;;;;494147;240;1393;-46
2021/08/20 03:42:43;;;;;;;;;;;21.30;63.20;;;;;;494028;240;2136;-47
2021/08/20 03:44:44;;;;;;;;;;;21.40;63.20;;;;;;494504;240;1101;-46
2021/08/20 03:46:45;;;;;;;;;;;21.40;63.10;;;;;;494109;240;1205;-46
2021/08/20 03:48:47;;;;;;;;;;;21.40;63.00;;;;;;494487;240;1068;-46
2021/08/20 03:50:48;;;;;;;;;;;21.40;62.90;;;;;;494229;240;1183;-46
2021/08/20 03:52:49;;;;;;;;;;;21.40;63.00;;;;;;494511;240;1044;-46
2021/08/20 03:54:51;;;;;;;;;;;21.40;63.00;;;;;;494045;240;1035;-46
2021/08/20 03:56:52;;;;;;;;;;;21.40;62.90;;;;;;494477;240;1332;-47
2021/08/20 03:58:53;;;;;;;;;;;21.40;62.90;;;;;;494551;240;1079;-46
2021/08/20 04:00:55;;;;;;;;;;;21.50;62.80;;;;;;494034;240;1234;-47
2021/08/20 04:02:56;;;;;;;;;;;21.50;62.80;;;;;;494200;240;2209;-46
2021/08/20 04:04:57;;;;;;;;;;;21.50;62.80;;;;;;494080;240;1078;-47
2021/08/20 04:06:59;;;;;;;;;;;21.50;62.80;;;;;;494156;240;1201;-47
2021/08/20 04:09:00;;;;;;;;;;;21.50;62.70;;;;;;494362;240;1081;-47
2021/08/20 04:11:01;;;;;;;;;;;21.50;62.70;;;;;;494165;240;1096;-46
2021/08/20 04:13:03;;;;;;;;;;;21.60;62.70;;;;;;494041;240;1090;-46
2021/08/20 04:15:04;;;;;;;;;;;21.60;62.70;;;;;;494118;240;1149;-46
2021/08/20 04:17:05;;;;;;;;;;;21.60;62.70;;;;;;494170;240;1242;-46
2021/08/20 04:19:07;;;;;;;;;;;21.60;62.70;;;;;;494079;240;1013;-47
2021/08/20 04:21:08;;;;;;;;;;;21.60;62.70;;;;;;494476;240;1122;-46
2021/08/20 04:23:09;;;;;;;;;;;21.60;62.60;;;;;;494409;240;2143;-47
2021/08/20 04:25:11;;;;;;;;;;;21.60;62.60;;;;;;494066;240;1089;-46
2021/08/20 04:27:12;;;;;;;;;;;21.60;62.70;;;;;;493970;240;1232;-46
2021/08/20 04:29:13;;;;;;;;;;;21.60;62.70;;;;;;494518;240;1073;-47
2021/08/20 04:31:15;;;;;;;;;;;21.60;62.70;;;;;;494136;240;1151;-47
2021/08/20 04:33:16;;;;;;;;;;;21.60;62.70;;;;;;493891;240;1224;-46
2021/08/20 04:35:17;;;;;;;;;;;21.50;63.70;;;;;;494025;240;1018;-46
2021/08/20 04:37:22;;;;;;;;;;;21.50;63.80;;;;;;494074;241;1186;-46
2021/08/20 04:39:20;;;;;;;;;;;21.30;64.70;;;;;;494067;241;1769;-46
2021/08/20 04:41:21;;;;;;;;;;;20.90;66.10;;;;;;494068;240;1206;-46
2021/08/20 04:43:23;;;;;;;;;;;20.60;67.30;;;;;;494423;240;2194;-46
2021/08/20 04:45:24;;;;;;;;;;;20.30;68.00;;;;;;494015;240;2255;-45
2021/08/20 04:47:25;;;;;;;;;;;20.20;68.60;;;;;;493965;240;1147;-46
2021/08/20 04:49:26;;;;;;;;;;;20.10;69.00;;;;;;493944;240;1066;-47
2021/08/20 04:51:28;;;;;;;;;;;20.00;69.40;;;;;;493912;240;1501;-46
2021/08/20 04:53:30;;;;;;;;;;;19.90;69.50;;;;;;493919;240;1542;-45
2021/08/20 04:55:31;;;;;;;;;;;19.90;69.70;;;;;;493826;240;2338;-46
2021/08/20 04:57:32;;;;;;;;;;;19.80;69.90;;;;;;493816;240;1209;-46
2021/08/20 04:59:34;;;;;;;;;;;19.70;70.00;;;;;;493900;240;1052;-46
2021/08/20 05:01:35;;;;;;;;;;;19.70;70.20;;;;;;493903;240;1340;-46
2021/08/20 05:03:36;;;;;;;;;;;19.70;70.20;;;;;;493963;240;2198;-46
2021/08/20 05:05:37;;;;;;;;;;;19.70;70.20;;;;;;493879;240;1305;-46
2021/08/20 05:07:39;;;;;;;;;;;19.60;70.30;;;;;;493823;240;1230;-46
2021/08/20 05:09:41;;;;;;;;;;;19.60;70.30;;;;;;494175;240;1043;-46
2021/08/20 05:11:42;;;;;;;;;;;19.60;70.40;;;;;;494005;240;1383;-46
2021/08/20 05:13:43;;;;;;;;;;;19.50;70.50;;;;;;494403;240;1111;-46
2021/08/20 05:15:44;;;;;;;;;;;19.50;70.50;;;;;;494096;240;1079;-46
2021/08/20 05:17:46;;;;;;;;;;;19.50;70.60;;;;;;493837;240;1182;-46
2021/08/20 05:19:47;;;;;;;;;;;19.50;70.60;;;;;;494121;240;1012;-46
2021/08/20 05:21:48;;;;;;;;;;;19.40;70.70;;;;;;493699;240;1172;-46
2021/08/20 05:23:50;;;;;;;;;;;19.50;70.60;;;;;;493904;240;2195;-45
2021/08/20 05:25:51;;;;;;;;;;;19.50;70.60;;;;;;493846;240;1143;-45
2021/08/20 05:27:52;;;;;;;;;;;19.40;70.50;;;;;;493956;240;1315;-46
2021/08/20 05:29:54;;;;;;;;;;;19.40;70.70;;;;;;493840;240;1233;-46
2021/08/20 05:31:55;;;;;;;;;;;19.40;70.70;;;;;;493854;240;1713;-46
2021/08/20 05:33:56;;;;;;;;;;;19.40;70.70;;;;;;493853;240;1252;-46
2021/08/20 05:35:58;;;;;;;;;;;19.30;70.80;;;;;;493824;240;1070;-46
2021/08/20 05:37:59;;;;;;;;;;;19.30;70.90;;;;;;493765;240;1076;-46
2021/08/20 05:40:01;;;;;;;;;;;19.30;70.90;;;;;;493803;240;1040;-45
2021/08/20 05:42:02;;;;;;;;;;;19.30;70.80;;;;;;494124;240;1325;-46
2021/08/20 05:44:04;;;;;;;;;;;19.30;70.70;;;;;;493779;240;2186;-46
2021/08/20 05:46:05;;;;;;;;;;;19.30;70.90;;;;;;493815;240;1066;-46
2021/08/20 05:48:06;;;;;;;;;;;19.30;70.90;;;;;;493988;240;1193;-46
2021/08/20 05:50:08;;;;;;;;;;;19.30;70.90;;;;;;493814;240;1325;-46
2021/08/20 05:52:09;;;;;;;;;;;19.30;70.90;;;;;;493793;240;1210;-46
2021/08/20 05:54:10;;;;;;;;;;;19.20;71.00;;;;;;494191;240;1771;-46
2021/08/20 05:56:12;;;;;;;;;;;19.20;70.90;;;;;;493807;240;1180;-46
2021/08/20 05:58:15;;;;;;;;;;;19.20;71.00;;;;;;493884;240;1129;-46
2021/08/20 06:00:16;;;;;;;;;;;19.20;70.90;;;;;;493771;240;1060;-46
2021/08/20 06:02:17;;;;;;;;;;;19.20;70.90;;;;;;494048;240;1322;-46
2021/08/20 06:04:19;;;;;;;;;;;19.20;71.00;;;;;;493846;240;2182;-46
2021/08/20 06:06:20;;;;;;;;;;;19.20;71.00;;;;;;493644;240;1216;-46
2021/08/20 06:08:21;;;;;;;;;;;19.20;71.00;;;;;;493441;240;1189;-46
2021/08/20 06:10:23;;;;;;;;;;;19.20;71.00;;;;;;493408;240;1083;-45
2021/08/20 06:12:24;;;;;;;;;;;19.20;70.90;;;;;;493236;240;1370;-46
2021/08/20 06:14:25;;;;;;;;;;;19.20;71.00;;;;;;493226;240;1098;-46
2021/08/20 06:16:27;;;;;;;;;;;19.20;71.00;;;;;;493415;240;1195;-45
2021/08/20 06:18:28;;;;;;;;;;;19.10;71.00;;;;;;493921;240;1148;-46
2021/08/20 06:20:29;;;;;;;;;;;19.20;71.00;;;;;;493750;240;946;-46
2021/08/20 06:22:31;;;;;;;;;;;19.20;71.00;;;;;;494058;240;1157;-46
2021/08/20 06:24:32;;;;;;;;;;;19.10;70.90;;;;;;494129;240;2191;-46
2021/08/20 06:26:33;;;;;;;;;;;19.10;71.00;;;;;;493636;240;1181;-45
2021/08/20 06:28:35;;;;;;;;;;;19.10;71.00;;;;;;493672;240;1221;-46
2021/08/20 06:30:36;;;;;;;;;;;19.10;71.00;;;;;;494147;240;1035;-46
2021/08/20 06:32:37;;;;;;;;;;;19.10;71.00;;;;;;494128;240;1374;-45
2021/08/20 06:34:39;;;;;;;;;;;19.00;71.00;;;;;;494262;240;904;-46
2021/08/20 06:36:40;;;;;;;;;;;19.10;71.10;;;;;;494158;240;1204;-46
2021/08/20 06:38:41;;;;;;;;;;;19.00;71.10;;;;;;494146;240;1077;-46
2021/08/20 06:40:43;;;;;;;;;;;19.00;71.00;;;;;;493708;240;918;-46
2021/08/20 06:42:44;;;;;;;;;;;19.10;71.00;;;;;;494048;240;1102;-46
2021/08/20 06:44:45;;;;;;;;;;;19.10;71.00;;;;;;493676;240;2188;-46
2021/08/20 06:46:46;;;;;;;;;;;19.10;71.00;;;;;;494127;240;1216;-46
2021/08/20 06:48:48;;;;;;;;;;;19.00;71.00;;;;;;493665;240;1187;-46
2021/08/20 06:50:51;;;;;;;;;;;19.10;71.10;;;;;;494127;240;829;-46
2021/08/20 06:52:50;;;;;;;;;;;19.00;71.00;;;;;;493999;240;2003;-46
2021/08/20 06:54:52;;;;;;;;;;;19.00;71.10;;;;;;493727;240;871;-46
2021/08/20 06:56:53;;;;;;;;;;;19.00;71.10;;;;;;493899;240;1240;-46
2021/08/20 06:58:57;;;;;;;;;;;19.00;71.10;;;;;;493637;240;1379;-46
2021/08/20 07:00:56;;;;;;;;;;;19.00;71.10;;;;;;493725;241;2149;-46
2021/08/20 07:02:58;;;;;;;;;;;19.10;71.20;;;;;;493878;240;2182;-46
2021/08/20 07:04:59;;;;;;;;;;;19.00;71.20;;;;;;494029;240;854;-46
2021/08/20 07:07:00;;;;;;;;;;;19.00;71.10;;;;;;493226;240;1141;-46
2021/08/20 07:09:02;;;;;;;;;;;19.00;71.10;;;;;;493054;240;1127;-46
2021/08/20 07:11:03;;;;;;;;;;;19.00;71.00;;;;;;493226;240;1104;-46
2021/08/20 07:13:04;;;;;;;;;;;19.00;71.00;;;;;;493395;240;1223;-45
2021/08/20 07:15:06;;;;;;;;;;;19.00;71.10;;;;;;493494;240;1203;-46
2021/08/20 07:17:07;;;;;;;;;;;19.00;71.10;;;;;;493154;240;1257;-46
2021/08/20 07:19:08;;;;;;;;;;;19.00;71.10;;;;;;493307;240;1264;-46
2021/08/20 07:21:10;;;;;;;;;;;19.00;71.20;;;;;;493206;240;1339;-46
2021/08/20 07:23:11;;;;;;;;;;;19.00;71.20;;;;;;493401;240;2143;-45
2021/08/20 07:25:12;;;;;;;;;;;19.00;71.20;;;;;;493162;240;1233;-46
2021/08/20 07:27:14;;;;;;;;;;;19.00;71.10;;;;;;493116;240;1482;-46
2021/08/20 07:29:15;;;;;;;;;;;19.00;71.10;;;;;;493058;240;1098;-46
2021/08/20 07:31:16;;;;;;;;;;;19.00;71.10;;;;;;492952;240;1327;-46
2021/08/20 07:33:18;;;;;;;;;;;19.00;71.20;;;;;;493082;240;1113;-46
2021/08/20 07:35:19;;;;;;;;;;;19.00;71.30;;;;;;493201;240;1263;-46
2021/08/20 07:37:20;;;;;;;;;;;19.00;71.20;;;;;;492959;240;1190;-46
2021/08/20 07:39:24;;;;;;;;;;;19.00;71.20;;;;;;493042;240;1113;-45
2021/08/20 07:41:23;;;;;;;;;;;19.00;71.30;;;;;;492771;241;2032;-46
2021/08/20 07:43:24;;;;;;;;;;;19.00;71.20;;;;;;493058;240;2190;-46
2021/08/20 07:45:25;;;;;;;;;;;19.00;71.20;;;;;;492999;240;1105;-46
2021/08/20 07:47:27;;;;;;;;;;;19.00;71.30;;;;;;492974;240;1374;-45
2021/08/20 07:49:29;;;;;;;;;;;18.90;71.20;;;;;;492972;240;1517;-46
2021/08/20 07:51:30;;;;;;;;;;;19.00;71.30;;;;;;493907;241;2176;-46
2021/08/20 07:53:31;;;;;;;;;;;18.90;71.20;;;;;;493552;240;1062;-46
2021/08/20 07:55:33;;;;;;;;;;;19.00;71.30;;;;;;493961;240;877;-45
2021/08/20 07:57:34;;;;;;;;;;;19.00;71.30;;;;;;493540;240;1209;-46
2021/08/20 07:59:35;;;;;;;;;;;18.90;71.30;;;;;;493621;240;1009;-46
2021/08/20 08:01:37;;;;;;;;;;;18.90;71.30;;;;;;493374;240;1150;-47
2021/08/20 08:03:39;;;;;;;;;;;18.90;71.30;;;;;;493067;240;2183;-46
2021/08/20 08:05:40;;;;;;;;;;;18.90;71.30;;;;;;493473;240;825;-46
2021/08/20 08:07:41;;;;;;;;;;;18.90;71.30;;;;;;493383;240;794;-46
2021/08/20 08:09:42;;;;;;;;;;;19.00;71.30;;;;;;492985;240;794;-46
2021/08/20 08:11:44;;;;;;;;;;;18.90;71.30;;;;;;493352;240;833;-46
2021/08/20 08:13:45;;;;;;;;;;;18.90;71.30;;;;;;493857;240;987;-46
2021/08/20 08:15:46;;;;;;;;;;;18.90;71.30;;;;;;493783;240;880;-46
2021/08/20 08:17:48;;;;;;;;;;;18.90;71.30;;;;;;493292;240;835;-46
2021/08/20 08:19:49;;;;;;;;;;;18.90;71.40;;;;;;493339;240;1303;-46
2021/08/20 08:21:50;;;;;;;;;;;18.90;71.30;;;;;;493782;240;855;-46
2021/08/20 08:23:52;;;;;;;;;;;19.00;71.40;;;;;;493360;240;2187;-46
2021/08/20 08:25:53;;;;;;;;;;;19.00;71.30;;;;;;493898;240;996;-47
2021/08/20 08:27:56;;;;;;;;;;;19.00;71.30;;;;;;493426;240;882;-46
2021/08/20 08:29:56;;;;;;;;;;;19.00;71.40;;;;;;493649;241;1722;-46
2021/08/20 08:31:57;;;;;;;;;;;19.00;71.30;;;;;;493119;240;1155;-46
2021/08/20 08:33:59;;;;;;;;;;;19.00;71.50;;;;;;493224;240;1092;-46
2021/08/20 08:36:00;;;;;;;;;;;18.90;71.50;;;;;;493784;239;1192;-46
2021/08/20 08:38:01;;;;;;;;;;;18.90;71.50;;;;;;493826;241;1047;-46
2021/08/20 08:40:02;;;;;;;;;;;18.90;71.40;;;;;;493418;240;816;-46
2021/08/20 08:42:04;;;;;;;;;;;18.90;71.50;;;;;;493377;240;991;-46
2021/08/20 08:44:05;;;;;;;;;;;18.90;71.50;;;;;;493862;240;2195;-46
2021/08/20 08:46:09;;;;;;;;;;;18.90;71.60;;;;;;493728;240;1178;-46
2021/08/20 08:48:08;;;;;;;;;;;18.90;71.50;;;;;;493119;241;1811;-46
2021/08/20 08:50:10;;;;;;;;;;;18.90;71.50;;;;;;493442;240;1064;-46
2021/08/20 08:52:11;;;;;;;;;;;18.90;71.40;;;;;;493770;240;1221;-45
2021/08/20 08:54:13;;;;;;;;;;;19.00;71.50;;;;;;493518;240;833;-46
2021/08/20 08:56:14;;;;;;;;;;;19.00;71.50;;;;;;493024;240;1411;-46
2021/08/20 08:58:16;;;;;;;;;;;18.90;71.50;;;;;;493656;240;1321;-46
2021/08/20 09:00:17;;;;;;;;;;;18.90;71.50;;;;;;493567;240;773;-46
2021/08/20 09:02:18;;;;;;;;;;;18.90;71.60;;;;;;493525;240;1385;-46
2021/08/20 09:04:21;;;;;;;;;;;18.90;71.60;;;;;;493587;240;2198;-46
2021/08/20 09:06:21;;;;;;;;;;;18.90;71.60;;;;;;493326;241;2309;-46
2021/08/20 09:08:22;;;;;;;;;;;18.90;71.50;;;;;;492760;240;1042;-46
2021/08/20 09:10:24;;;;;;;;;;;18.90;71.70;;;;;;493328;240;759;-46
2021/08/20 09:12:25;;;;;;;;;;;18.90;71.70;;;;;;492868;240;1111;-46
2021/08/20 09:14:26;;;;;;;;;;;18.90;71.60;;;;;;493370;240;781;-46
2021/08/20 09:16:27;;;;;;;;;;;18.90;71.60;;;;;;493050;240;981;-46
2021/08/20 09:18:29;;;;;;;;;;;18.90;71.60;;;;;;493697;240;917;-46
2021/08/20 09:20:30;;;;;;;;;;;18.90;71.60;;;;;;493371;240;1496;-46
2021/08/20 09:22:31;;;;;;;;;;;18.90;71.60;;;;;;493587;240;976;-46
2021/08/20 09:24:33;;;;;;;;;;;18.90;71.60;;;;;;493229;240;2199;-46
2021/08/20 09:26:34;;;;;;;;;;;18.80;71.80;;;;;;493276;239;1546;-46
2021/08/20 09:28:35;;;;;;;;;;;18.80;71.80;;;;;;493778;240;788;-46
2021/08/20 09:30:37;;;;;;;;;;;18.90;71.70;;;;;;493664;240;648;-46
2021/08/20 09:32:38;;;;;;;;;;;18.90;71.70;;;;;;493493;240;1003;-46
2021/08/20 09:34:39;;;;;;;;;;;18.90;71.80;;;;;;493540;240;1123;-46
2021/08/20 09:36:41;;;;;;;;;;;18.90;71.80;;;;;;493668;240;2294;-46
2021/08/20 09:38:42;;;;;;;;;;;18.80;71.70;;;;;;493293;240;747;-46
2021/08/20 09:40:43;;;;;;;;;;;18.90;71.70;;;;;;493731;240;800;-46
2021/08/20 09:42:45;;;;;;;;;;;18.90;71.70;;;;;;493706;240;1098;-46
2021/08/20 09:44:49;;;;;;;;;;;18.90;71.70;;;;;;493322;240;2191;-46
2021/08/20 09:46:51;;;;;;;;;;;18.90;71.70;;;;;;493257;241;1942;-46
2021/08/20 09:48:49;;;;;;;;;;;18.80;71.70;;;;;;493274;241;2207;-46
2021/08/20 09:50:50;;;;;;;;;;;18.80;71.80;;;;;;493139;240;1337;-46
2021/08/20 09:52:51;;;;;;;;;;;18.80;71.80;;;;;;493236;240;1097;-46
2021/08/20 09:54:52;;;;;;;;;;;18.80;71.80;;;;;;493273;240;1300;-46
2021/08/20 09:56:54;;;;;;;;;;;18.80;71.70;;;;;;493207;240;1053;-46
2021/08/20 09:58:55;;;;;;;;;;;18.80;71.70;;;;;;493720;240;764;-46
2021/08/20 10:00:56;;;;;;;;;;;18.90;71.80;;;;;;493549;240;1285;-46
2021/08/20 10:02:58;;;;;;;;;;;18.90;71.70;;;;;;493496;240;1071;-46
2021/08/20 10:04:59;;;;;;;;;;;18.80;71.70;;;;;;493566;240;2190;-46
2021/08/20 10:07:00;;;;;;;;;;;18.80;71.80;;;;;;493044;240;1142;-46
2021/08/20 10:09:02;;;;;;;;;;;18.80;71.80;;;;;;493626;240;753;-46
2021/08/20 10:11:03;;;;;;;;;;;18.80;71.90;;;;;;493010;240;1415;-46
2021/08/20 10:13:04;;;;;;;;;;;18.90;71.80;;;;;;493067;240;991;-46
2021/08/20 10:15:06;;;;;;;;;;;18.80;71.70;;;;;;493226;240;823;-46
2021/08/20 10:17:07;;;;;;;;;;;18.90;71.80;;;;;;493776;240;1049;-46
2021/08/20 10:19:08;;;;;;;;;;;18.90;71.70;;;;;;493407;240;941;-45
2021/08/20 10:21:10;;;;;;;;;;;18.80;71.80;;;;;;493369;240;1280;-46
2021/08/20 10:23:11;;;;;;;;;;;18.80;71.80;;;;;;493838;240;1064;-46
2021/08/20 10:25:12;;;;;;;;;;;18.80;71.80;;;;;;493367;240;2191;-46
2021/08/20 10:27:14;;;;;;;;;;;18.80;71.80;;;;;;493894;240;1043;-46
2021/08/20 10:29:15;;;;;;;;;;;18.80;71.80;;;;;;493922;240;1035;-46
2021/08/20 10:31:16;;;;;;;;;;;18.80;71.80;;;;;;493392;240;1186;-46
2021/08/20 10:33:18;;;;;;;;;;;18.80;71.80;;;;;;493888;240;995;-46
2021/08/20 10:35:19;;;;;;;;;;;18.80;71.70;;;;;;493439;240;1062;-46
2021/08/20 10:37:20;;;;;;;;;;;18.80;71.80;;;;;;493516;240;1224;-46
2021/08/20 10:39:22;;;;;;;;;;;18.80;72.00;;;;;;493460;240;739;-46
2021/08/20 10:41:23;;;;;;;;;;;18.80;71.90;;;;;;493538;240;1460;-46
2021/08/20 10:43:24;;;;;;;;;;;18.80;71.90;;;;;;493146;240;1071;-46
2021/08/20 10:45:26;;;;;;;;;;;18.80;71.90;;;;;;493145;240;2194;-46
2021/08/20 10:47:27;;;;;;;;;;;18.80;71.90;;;;;;493491;240;1328;-46
2021/08/20 10:49:28;;;;;;;;;;;18.80;71.90;;;;;;493213;240;1079;-46
2021/08/20 10:51:29;;;;;;;;;;;18.90;71.80;;;;;;493143;240;1213;-46
2021/08/20 10:53:31;;;;;;;;;;;18.90;71.80;;;;;;493697;240;1065;-46
2021/08/20 10:55:32;;;;;;;;;;;18.80;71.80;;;;;;493671;240;1536;-46
2021/08/20 10:57:34;;;;;;;;;;;18.90;71.80;;;;;;493385;240;1248;-46
2021/08/20 10:59:35;;;;;;;;;;;18.80;71.90;;;;;;493694;240;797;-46
2021/08/20 11:01:36;;;;;;;;;;;18.90;71.90;;;;;;493573;240;1102;-46
2021/08/20 11:03:38;;;;;;;;;;;18.80;71.90;;;;;;493192;240;1102;-46
2021/08/20 11:05:39;;;;;;;;;;;18.90;71.90;;;;;;493595;241;2195;-46
2021/08/20 11:07:41;;;;;;;;;;;18.80;71.80;;;;;;493138;240;988;-46
2021/08/20 11:09:42;;;;;;;;;;;18.80;71.80;;;;;;493861;240;868;-46
2021/08/20 11:11:44;;;;;;;;;;;18.80;71.90;;;;;;493347;240;1174;-46
2021/08/20 11:13:45;;;;;;;;;;;18.90;71.90;;;;;;493186;240;1093;-46
2021/08/20 11:15:46;;;;;;;;;;;18.80;71.80;;;;;;493546;240;731;-46
2021/08/20 11:17:48;;;;;;;;;;;18.80;71.90;;;;;;493488;240;1281;-46
2021/08/20 11:19:49;;;;;;;;;;;18.80;71.90;;;;;;493189;240;761;-46
2021/08/20 11:21:51;;;;;;;;;;;18.90;71.90;;;;;;492934;240;1233;-46
2021/08/20 11:23:52;;;;;;;;;;;18.80;71.80;;;;;;493149;240;1071;-46
2021/08/20 11:25:53;;;;;;;;;;;18.80;71.80;;;;;;493564;240;2183;-46
2021/08/20 11:27:55;;;;;;;;;;;18.80;71.90;;;;;;493684;240;1001;-46
2021/08/20 11:29:56;;;;;;;;;;;18.80;72.00;;;;;;493838;240;820;-46
2021/08/20 11:31:57;;;;;;;;;;;18.80;71.90;;;;;;493297;240;1326;-46
2021/08/20 11:33:59;;;;;;;;;;;18.80;72.00;;;;;;493764;240;1081;-46
2021/08/20 11:36:00;;;;;;;;;;;18.80;72.00;;;;;;493650;240;1152;-46
2021/08/20 11:38:01;;;;;;;;;;;18.80;72.00;;;;;;493237;240;990;-46
2021/08/20 11:40:03;;;;;;;;;;;18.80;72.00;;;;;;493672;240;813;-46
2021/08/20 11:42:04;;;;;;;;;;;18.80;72.00;;;;;;493551;240;1863;-46
2021/08/20 11:44:05;;;;;;;;;;;18.80;71.90;;;;;;493187;240;1017;-46
2021/08/20 11:46:06;;;;;;;;;;;18.80;72.00;;;;;;493016;240;2199;-46
2021/08/20 11:48:08;;;;;;;;;;;18.80;71.90;;;;;;493624;240;1106;-46
2021/08/20 11:50:09;;;;;;;;;;;18.80;71.90;;;;;;493265;240;717;-46
2021/08/20 11:52:11;;;;;;;;;;;18.80;72.00;;;;;;493214;240;1084;-46
2021/08/20 11:54:12;;;;;;;;;;;18.80;72.10;;;;;;493753;240;761;-46
2021/08/20 11:56:14;;;;;;;;;;;18.80;72.10;;;;;;493235;240;794;-46